sensor_id;sensor_type;location;lat;lon;timestamp;P1;durP1;ratioP1;P2;durP2;ratioP2
4001;SDS011;2015;48.670;9.060;2023-10-13T00:02:05;305.67;;;292.97;;
4001;SDS011;2015;48.670;9.060;2023-10-13T00:04:37;400.60;;;382.77;;
4001;SDS011;2015;48.670;9.060;2023-10-13T00:07:09;348.40;;;333.90;;
4001;SDS011;2015;48.670;9.060;2023-10-13T00:09:41;9.80;;;9.10;;
4001;SDS011;2015;48.670;9.060;2023-10-13T00:12:13;5.57;;;4.93;;
4001;SDS011;2015;48.670;9.060;2023-10-13T00:14:45;301.30;;;288.90;;
4001;SDS011;2015;48.670;9.060;2023-10-13T00:17:17;301.53;;;289.87;;
4001;SDS011;2015;48.670;9.060;2023-10-13T00:19:55;409.47;;;391.27;;
4001;SDS011;2015;48.670;9.060;2023-10-13T00:22:31;386.97;;;369.97;;
4001;SDS011;2015;48.670;9.060;2023-10-13T00:25:03;294.77;;;282.93;;
4001;SDS011;2015;48.670;9.060;2023-10-13T00:27:35;340.97;;;326.23;;
4001;SDS011;2015;48.670;9.060;2023-10-13T00:30:12;442.83;;;421.77;;
4001;SDS011;2015;48.670;9.060;2023-10-13T00:32:54;407.43;;;389.23;;
4001;SDS011;2015;48.670;9.060;2023-10-13T00:35:29;496.07;;;471.67;;
4001;SDS011;2015;48.670;9.060;2023-10-13T00:38:07;360.57;;;345.50;;
4001;SDS011;2015;48.670;9.060;2023-10-13T00:40:45;442.50;;;421.90;;
4001;SDS011;2015;48.670;9.060;2023-10-13T00:43:23;479.87;;;456.93;;
4001;SDS011;2015;48.670;9.060;2023-10-13T00:45:56;489.60;;;465.50;;
4001;SDS011;2015;48.670;9.060;2023-10-13T00:48:29;506.90;;;482.07;;
4001;SDS011;2015;48.670;9.060;2023-10-13T00:51:05;276.03;;;264.93;;
4001;SDS011;2015;48.670;9.060;2023-10-13T00:53:38;274.43;;;263.77;;
4001;SDS011;2015;48.670;9.060;2023-10-13T00:56:11;121.95;;;117.63;;
4001;SDS011;2015;48.670;9.060;2023-10-13T00:58:58;265.63;;;255.73;;
4001;SDS011;2015;48.670;9.060;2023-10-13T01:01:33;512.87;;;487.27;;
4001;SDS011;2015;48.670;9.060;2023-10-13T01:04:08;636.93;;;601.93;;
4001;SDS011;2015;48.670;9.060;2023-10-13T01:06:43;588.20;;;556.63;;
4001;SDS011;2015;48.670;9.060;2023-10-13T01:09:17;527.37;;;500.47;;
4001;SDS011;2015;48.670;9.060;2023-10-13T01:11:50;474.57;;;451.17;;
4001;SDS011;2015;48.670;9.060;2023-10-13T01:14:25;376.13;;;359.43;;
4001;SDS011;2015;48.670;9.060;2023-10-13T01:17:00;339.30;;;324.77;;
4001;SDS011;2015;48.670;9.060;2023-10-13T01:19:36;444.07;;;423.00;;
4001;SDS011;2015;48.670;9.060;2023-10-13T01:22:14;312.90;;;299.80;;
4001;SDS011;2015;48.670;9.060;2023-10-13T01:24:46;301.50;;;289.00;;
4001;SDS011;2015;48.670;9.060;2023-10-13T01:27:17;356.10;;;340.50;;
4001;SDS011;2015;48.670;9.060;2023-10-13T01:29:51;382.80;;;365.63;;
4001;SDS011;2015;48.670;9.060;2023-10-13T01:32:29;350.60;;;335.50;;
4001;SDS011;2015;48.670;9.060;2023-10-13T01:35:01;277.13;;;266.03;;
4001;SDS011;2015;48.670;9.060;2023-10-13T01:37:37;279.90;;;268.43;;
4001;SDS011;2015;48.670;9.060;2023-10-13T01:40:09;231.87;;;223.10;;
4001;SDS011;2015;48.670;9.060;2023-10-13T01:42:42;221.37;;;212.83;;
4001;SDS011;2015;48.670;9.060;2023-10-13T01:45:16;221.10;;;212.33;;
4001;SDS011;2015;48.670;9.060;2023-10-13T01:47:51;219.90;;;211.30;;
4001;SDS011;2015;48.670;9.060;2023-10-13T01:50:23;267.17;;;256.37;;
4001;SDS011;2015;48.670;9.060;2023-10-13T01:53:01;212.83;;;204.80;;
4001;SDS011;2015;48.670;9.060;2023-10-13T01:55:48;195.80;;;188.70;;
4001;SDS011;2015;48.670;9.060;2023-10-13T01:58:21;265.27;;;254.70;;
4001;SDS011;2015;48.670;9.060;2023-10-13T02:00:54;297.15;;;285.33;;
4001;SDS011;2015;48.670;9.060;2023-10-13T02:03:28;314.63;;;302.10;;
4001;SDS011;2015;48.670;9.060;2023-10-13T02:06:01;300.47;;;288.20;;
4001;SDS011;2015;48.670;9.060;2023-10-13T02:08:35;253.70;;;243.50;;
4001;SDS011;2015;48.670;9.060;2023-10-13T02:11:14;7.50;;;6.87;;
4001;SDS011;2015;48.670;9.060;2023-10-13T02:13:49;6.50;;;4.87;;
4001;SDS011;2015;48.670;9.060;2023-10-13T02:16:24;5.63;;;4.33;;
4001;SDS011;2015;48.670;9.060;2023-10-13T02:18:57;6.67;;;5.13;;
4001;SDS011;2015;48.670;9.060;2023-10-13T02:21:35;196.83;;;189.63;;
4001;SDS011;2015;48.670;9.060;2023-10-13T02:24:11;229.83;;;221.10;;
4001;SDS011;2015;48.670;9.060;2023-10-13T02:27:01;275.13;;;263.73;;
4001;SDS011;2015;48.670;9.060;2023-10-13T02:29:40;105.93;;;101.53;;
4001;SDS011;2015;48.670;9.060;2023-10-13T02:32:13;246.30;;;235.67;;
4001;SDS011;2015;48.670;9.060;2023-10-13T02:34:49;277.23;;;266.75;;
4001;SDS011;2015;48.670;9.060;2023-10-13T02:37:21;278.03;;;266.47;;
4001;SDS011;2015;48.670;9.060;2023-10-13T02:39:53;250.87;;;240.90;;
4001;SDS011;2015;48.670;9.060;2023-10-13T02:42:29;240.13;;;230.53;;
4001;SDS011;2015;48.670;9.060;2023-10-13T02:45:00;274.43;;;263.33;;
4001;SDS011;2015;48.670;9.060;2023-10-13T02:47:34;274.57;;;263.40;;
4001;SDS011;2015;48.670;9.060;2023-10-13T02:50:06;247.60;;;237.40;;
4001;SDS011;2015;48.670;9.060;2023-10-13T02:52:44;272.23;;;261.20;;
4001;SDS011;2015;48.670;9.060;2023-10-13T02:55:19;208.67;;;200.20;;
4001;SDS011;2015;48.670;9.060;2023-10-13T02:57:56;277.03;;;265.37;;
4001;SDS011;2015;48.670;9.060;2023-10-13T03:00:28;281.33;;;269.53;;
4001;SDS011;2015;48.670;9.060;2023-10-13T03:03:03;271.03;;;259.63;;
4001;SDS011;2015;48.670;9.060;2023-10-13T03:05:37;259.20;;;248.77;;
4001;SDS011;2015;48.670;9.060;2023-10-13T03:08:10;286.15;;;275.13;;
4001;SDS011;2015;48.670;9.060;2023-10-13T03:10:42;307.70;;;295.53;;
4001;SDS011;2015;48.670;9.060;2023-10-13T03:13:18;311.70;;;298.30;;
4001;SDS011;2015;48.670;9.060;2023-10-13T03:15:50;253.47;;;243.20;;
4001;SDS011;2015;48.670;9.060;2023-10-13T03:18:22;229.77;;;220.97;;
4001;SDS011;2015;48.670;9.060;2023-10-13T03:20:53;216.20;;;207.73;;
4001;SDS011;2015;48.670;9.060;2023-10-13T03:23:30;228.60;;;219.63;;
4001;SDS011;2015;48.670;9.060;2023-10-13T03:26:17;249.97;;;239.90;;
4001;SDS011;2015;48.670;9.060;2023-10-13T03:28:51;219.33;;;210.70;;
4001;SDS011;2015;48.670;9.060;2023-10-13T03:31:23;270.07;;;258.33;;
4001;SDS011;2015;48.670;9.060;2023-10-13T03:33:59;247.30;;;237.67;;
4001;SDS011;2015;48.670;9.060;2023-10-13T03:36:31;271.53;;;260.43;;
4001;SDS011;2015;48.670;9.060;2023-10-13T03:39:21;281.10;;;269.27;;
4001;SDS011;2015;48.670;9.060;2023-10-13T03:42:00;282.87;;;270.97;;
4001;SDS011;2015;48.670;9.060;2023-10-13T03:44:36;278.20;;;265.77;;
4001;SDS011;2015;48.670;9.060;2023-10-13T03:47:09;279.93;;;267.77;;
4001;SDS011;2015;48.670;9.060;2023-10-13T03:49:49;270.90;;;259.63;;
4001;SDS011;2015;48.670;9.060;2023-10-13T03:52:22;222.33;;;213.50;;
4001;SDS011;2015;48.670;9.060;2023-10-13T03:54:56;241.57;;;231.50;;
4001;SDS011;2015;48.670;9.060;2023-10-13T03:57:29;220.00;;;211.13;;
4001;SDS011;2015;48.670;9.060;2023-10-13T04:00:05;247.63;;;237.23;;
4001;SDS011;2015;48.670;9.060;2023-10-13T04:02:40;261.97;;;251.10;;
4001;SDS011;2015;48.670;9.060;2023-10-13T04:05:18;254.40;;;243.80;;
4001;SDS011;2015;48.670;9.060;2023-10-13T04:08:09;253.80;;;243.00;;
4001;SDS011;2015;48.670;9.060;2023-10-13T04:11:14;239.20;;;229.27;;
4001;SDS011;2015;48.670;9.060;2023-10-13T04:14:04;144.80;;;139.63;;
4001;SDS011;2015;48.670;9.060;2023-10-13T04:16:55;332.60;;;318.10;;
4001;SDS011;2015;48.670;9.060;2023-10-13T04:19:27;325.90;;;310.83;;
4001;SDS011;2015;48.670;9.060;2023-10-13T04:22:00;263.83;;;252.73;;
4001;SDS011;2015;48.670;9.060;2023-10-13T04:24:47;299.60;;;287.00;;
4001;SDS011;2015;48.670;9.060;2023-10-13T04:27:32;292.67;;;279.80;;
4001;SDS011;2015;48.670;9.060;2023-10-13T04:30:11;302.07;;;288.70;;
4001;SDS011;2015;48.670;9.060;2023-10-13T04:32:50;317.97;;;303.80;;
4001;SDS011;2015;48.670;9.060;2023-10-13T04:35:42;357.27;;;340.67;;
4001;SDS011;2015;48.670;9.060;2023-10-13T04:38:19;311.07;;;297.10;;
4001;SDS011;2015;48.670;9.060;2023-10-13T04:40:51;317.83;;;303.53;;
4001;SDS011;2015;48.670;9.060;2023-10-13T04:43:41;339.60;;;323.73;;
4001;SDS011;2015;48.670;9.060;2023-10-13T04:46:28;274.02;;;263.50;;
4001;SDS011;2015;48.670;9.060;2023-10-13T04:49:22;382.23;;;364.37;;
4001;SDS011;2015;48.670;9.060;2023-10-13T04:52:05;335.47;;;320.57;;
4001;SDS011;2015;48.670;9.060;2023-10-13T04:54:43;292.30;;;279.90;;
4001;SDS011;2015;48.670;9.060;2023-10-13T04:57:21;319.63;;;305.80;;
4001;SDS011;2015;48.670;9.060;2023-10-13T04:59:57;363.37;;;346.30;;
4001;SDS011;2015;48.670;9.060;2023-10-13T05:02:42;353.33;;;336.70;;
4001;SDS011;2015;48.670;9.060;2023-10-13T05:05:31;334.57;;;318.77;;
4001;SDS011;2015;48.670;9.060;2023-10-13T05:08:21;360.67;;;343.90;;
4001;SDS011;2015;48.670;9.060;2023-10-13T05:11:14;334.03;;;319.50;;
4001;SDS011;2015;48.670;9.060;2023-10-13T05:14:05;356.70;;;340.40;;
4001;SDS011;2015;48.670;9.060;2023-10-13T05:16:55;340.83;;;325.73;;
4001;SDS011;2015;48.670;9.060;2023-10-13T05:20:00;256.15;;;246.55;;
4001;SDS011;2015;48.670;9.060;2023-10-13T05:22:50;376.03;;;359.03;;
4001;SDS011;2015;48.670;9.060;2023-10-13T05:25:41;388.47;;;369.40;;
4001;SDS011;2015;48.670;9.060;2023-10-13T05:28:31;363.83;;;347.23;;
4001;SDS011;2015;48.670;9.060;2023-10-13T05:31:22;341.77;;;326.30;;
4001;SDS011;2015;48.670;9.060;2023-10-13T05:34:12;6.93;;;6.23;;
4001;SDS011;2015;48.670;9.060;2023-10-13T05:37:03;10.03;;;7.40;;
4001;SDS011;2015;48.670;9.060;2023-10-13T05:39:53;8.70;;;5.77;;
4001;SDS011;2015;48.670;9.060;2023-10-13T05:42:43;8.87;;;6.80;;
4001;SDS011;2015;48.670;9.060;2023-10-13T05:45:34;8.60;;;6.50;;
4001;SDS011;2015;48.670;9.060;2023-10-13T05:48:25;189.20;;;181.87;;
4001;SDS011;2015;48.670;9.060;2023-10-13T05:51:14;171.60;;;164.80;;
4001;SDS011;2015;48.670;9.060;2023-10-13T05:54:14;193.80;;;186.40;;
4001;SDS011;2015;48.670;9.060;2023-10-13T05:56:47;217.17;;;208.27;;
4001;SDS011;2015;48.670;9.060;2023-10-13T05:59:41;188.23;;;180.20;;
4001;SDS011;2015;48.670;9.060;2023-10-13T06:02:31;259.23;;;248.37;;
4001;SDS011;2015;48.670;9.060;2023-10-13T06:05:22;226.43;;;217.50;;
4001;SDS011;2015;48.670;9.060;2023-10-13T06:08:12;285.97;;;273.57;;
4001;SDS011;2015;48.670;9.060;2023-10-13T06:11:03;323.03;;;307.87;;
4001;SDS011;2015;48.670;9.060;2023-10-13T06:13:54;293.03;;;280.23;;
4001;SDS011;2015;48.670;9.060;2023-10-13T06:16:45;332.20;;;316.87;;
4001;SDS011;2015;48.670;9.060;2023-10-13T06:19:36;353.50;;;336.17;;
4001;SDS011;2015;48.670;9.060;2023-10-13T06:22:26;336.97;;;321.30;;
4001;SDS011;2015;48.670;9.060;2023-10-13T06:25:16;374.92;;;358.80;;
4001;SDS011;2015;48.670;9.060;2023-10-13T06:28:21;429.20;;;408.90;;
4001;SDS011;2015;48.670;9.060;2023-10-13T06:31:11;421.20;;;400.90;;
4001;SDS011;2015;48.670;9.060;2023-10-13T06:33:53;443.90;;;422.20;;
4001;SDS011;2015;48.670;9.060;2023-10-13T06:36:27;428.03;;;407.13;;
4001;SDS011;2015;48.670;9.060;2023-10-13T06:38:58;487.70;;;462.53;;
4001;SDS011;2015;48.670;9.060;2023-10-13T06:41:49;506.17;;;479.57;;
4001;SDS011;2015;48.670;9.060;2023-10-13T06:44:22;492.17;;;466.63;;
4001;SDS011;2015;48.670;9.060;2023-10-13T06:46:55;480.23;;;456.13;;
4001;SDS011;2015;48.670;9.060;2023-10-13T06:49:27;479.00;;;454.50;;
4001;SDS011;2015;48.670;9.060;2023-10-13T06:52:00;407.63;;;387.63;;
4001;SDS011;2015;48.670;9.060;2023-10-13T06:54:32;403.13;;;384.07;;
4001;SDS011;2015;48.670;9.060;2023-10-13T06:57:06;449.63;;;427.17;;
4001;SDS011;2015;48.670;9.060;2023-10-13T06:59:41;178.60;;;171.70;;
4001;SDS011;2015;48.670;9.060;2023-10-13T07:02:13;8.97;;;7.80;;
4001;SDS011;2015;48.670;9.060;2023-10-13T07:04:59;9.70;;;6.60;;
4001;SDS011;2015;48.670;9.060;2023-10-13T07:07:43;6.63;;;5.93;;
4001;SDS011;2015;48.670;9.060;2023-10-13T07:10:15;287.13;;;275.27;;
4001;SDS011;2015;48.670;9.060;2023-10-13T07:12:47;315.53;;;302.23;;
4001;SDS011;2015;48.670;9.060;2023-10-13T07:15:21;322.40;;;308.70;;
4001;SDS011;2015;48.670;9.060;2023-10-13T07:17:58;344.03;;;328.63;;
4001;SDS011;2015;48.670;9.060;2023-10-13T07:20:32;308.17;;;295.07;;
4001;SDS011;2015;48.670;9.060;2023-10-13T07:23:03;355.67;;;339.80;;
4001;SDS011;2015;48.670;9.060;2023-10-13T07:25:37;342.77;;;327.87;;
4001;SDS011;2015;48.670;9.060;2023-10-13T07:28:11;330.97;;;316.30;;
4001;SDS011;2015;48.670;9.060;2023-10-13T07:30:43;8.90;;;8.25;;
4001;SDS011;2015;48.670;9.060;2023-10-13T07:33:41;19.53;;;18.20;;
4001;SDS011;2015;48.670;9.060;2023-10-13T07:36:13;8.37;;;7.60;;
4001;SDS011;2015;48.670;9.060;2023-10-13T07:38:49;10.40;;;9.40;;
4001;SDS011;2015;48.670;9.060;2023-10-13T07:41:51;14.63;;;13.77;;
4001;SDS011;2015;48.670;9.060;2023-10-13T07:44:35;14.47;;;13.30;;
4001;SDS011;2015;48.670;9.060;2023-10-13T07:47:07;19.53;;;18.37;;
4001;SDS011;2015;48.670;9.060;2023-10-13T07:49:42;8.07;;;7.33;;
4001;SDS011;2015;48.670;9.060;2023-10-13T07:52:14;7.83;;;7.23;;
4001;SDS011;2015;48.670;9.060;2023-10-13T07:54:55;6.27;;;5.80;;
4001;SDS011;2015;48.670;9.060;2023-10-13T07:57:34;6.03;;;5.53;;
4001;SDS011;2015;48.670;9.060;2023-10-13T08:00:06;5.60;;;5.10;;
4001;SDS011;2015;48.670;9.060;2023-10-13T08:02:58;7.27;;;5.10;;
4001;SDS011;2015;48.670;9.060;2023-10-13T08:05:41;11.30;;;10.57;;
4001;SDS011;2015;48.670;9.060;2023-10-13T08:08:36;10.10;;;5.57;;
4001;SDS011;2015;48.670;9.060;2023-10-13T08:11:13;10.97;;;10.13;;
4001;SDS011;2015;48.670;9.060;2023-10-13T08:13:56;486.63;;;463.23;;
4001;SDS011;2015;48.670;9.060;2023-10-13T08:16:48;488.60;;;465.10;;
4001;SDS011;2015;48.670;9.060;2023-10-13T08:19:24;508.97;;;483.47;;
4001;SDS011;2015;48.670;9.060;2023-10-13T08:22:11;562.17;;;533.27;;
4001;SDS011;2015;48.670;9.060;2023-10-13T08:24:50;556.00;;;527.63;;
4001;SDS011;2015;48.670;9.060;2023-10-13T08:27:23;526.50;;;500.30;;
4001;SDS011;2015;48.670;9.060;2023-10-13T08:30:06;551.70;;;523.23;;
4001;SDS011;2015;48.670;9.060;2023-10-13T08:33:14;551.03;;;522.67;;
4001;SDS011;2015;48.670;9.060;2023-10-13T08:35:49;559.23;;;530.03;;
4001;SDS011;2015;48.670;9.060;2023-10-13T08:38:46;554.57;;;526.00;;
4001;SDS011;2015;48.670;9.060;2023-10-13T08:41:26;585.70;;;555.13;;
4001;SDS011;2015;48.670;9.060;2023-10-13T08:44:01;588.13;;;557.33;;
4001;SDS011;2015;48.670;9.060;2023-10-13T08:46:35;670.30;;;633.40;;
4001;SDS011;2015;48.670;9.060;2023-10-13T08:49:31;713.37;;;672.47;;
4001;SDS011;2015;48.670;9.060;2023-10-13T08:52:11;741.67;;;698.60;;
4001;SDS011;2015;48.670;9.060;2023-10-13T08:55:05;791.93;;;746.83;;
4001;SDS011;2015;48.670;9.060;2023-10-13T08:57:56;822.73;;;775.03;;
4001;SDS011;2015;48.670;9.060;2023-10-13T09:00:34;833.40;;;785.63;;
4001;SDS011;2015;48.670;9.060;2023-10-13T09:03:24;834.20;;;786.50;;
4001;SDS011;2015;48.670;9.060;2023-10-13T09:06:14;826.93;;;779.47;;
4001;SDS011;2015;48.670;9.060;2023-10-13T09:08:46;871.93;;;822.03;;
4001;SDS011;2015;48.670;9.060;2023-10-13T09:11:50;863.43;;;814.17;;
4001;SDS011;2015;48.670;9.060;2023-10-13T09:14:24;345.70;;;331.97;;
4001;SDS011;2015;48.670;9.060;2023-10-13T09:17:07;164.13;;;158.20;;
4001;SDS011;2015;48.670;9.060;2023-10-13T09:19:49;202.67;;;195.60;;
4001;SDS011;2015;48.670;9.060;2023-10-13T09:22:28;225.03;;;216.37;;
4001;SDS011;2015;48.670;9.060;2023-10-13T09:25:07;301.13;;;288.83;;
4001;SDS011;2015;48.670;9.060;2023-10-13T09:27:48;786.83;;;740.03;;
4001;SDS011;2015;48.670;9.060;2023-10-13T09:30:24;831.27;;;782.40;;
4001;SDS011;2015;48.670;9.060;2023-10-13T09:33:03;858.77;;;808.17;;
4001;SDS011;2015;48.670;9.060;2023-10-13T09:35:36;870.30;;;819.07;;
4001;SDS011;2015;48.670;9.060;2023-10-13T09:38:10;922.13;;;867.77;;
4001;SDS011;2015;48.670;9.060;2023-10-13T09:40:43;846.03;;;794.83;;
4001;SDS011;2015;48.670;9.060;2023-10-13T09:43:22;546.03;;;514.10;;
4001;SDS011;2015;48.670;9.060;2023-10-13T09:46:00;649.67;;;609.53;;
4001;SDS011;2015;48.670;9.060;2023-10-13T09:48:38;637.43;;;599.60;;
4001;SDS011;2015;48.670;9.060;2023-10-13T09:51:18;659.37;;;618.77;;
4001;SDS011;2015;48.670;9.060;2023-10-13T09:53:56;701.78;;;657.38;;
4001;SDS011;2015;48.670;9.060;2023-10-13T09:56:59;551.88;;;521.22;;
4001;SDS011;2015;48.670;9.060;2023-10-13T09:59:49;478.10;;;453.42;;
4001;SDS011;2015;48.670;9.060;2023-10-13T10:02:24;410.25;;;390.52;;
4001;SDS011;2015;48.670;9.060;2023-10-13T10:04:59;530.00;;;501.08;;
4001;SDS011;2015;48.670;9.060;2023-10-13T10:07:56;169.50;;;163.23;;
4001;SDS011;2015;48.670;9.060;2023-10-13T10:10:44;181.00;;;173.93;;
4001;SDS011;2015;48.670;9.060;2023-10-13T10:13:28;38.50;;;36.85;;
4001;SDS011;2015;48.670;9.060;2023-10-13T10:16:12;437.98;;;414.20;;
4001;SDS011;2015;48.670;9.060;2023-10-13T10:18:59;630.88;;;591.65;;
4001;SDS011;2015;48.670;9.060;2023-10-13T10:21:34;605.72;;;568.80;;
4001;SDS011;2015;48.670;9.060;2023-10-13T10:24:20;583.47;;;549.25;;
4001;SDS011;2015;48.670;9.060;2023-10-13T10:27:01;650.42;;;609.42;;
4001;SDS011;2015;48.670;9.060;2023-10-13T10:29:35;630.60;;;591.45;;
4001;SDS011;2015;48.670;9.060;2023-10-13T10:32:13;405.25;;;384.00;;
4001;SDS011;2015;48.670;9.060;2023-10-13T10:34:45;5.47;;;5.07;;
4001;SDS011;2015;48.670;9.060;2023-10-13T10:37:18;11.25;;;5.93;;
4001;SDS011;2015;48.670;9.060;2023-10-13T10:39:50;4.95;;;4.50;;
4001;SDS011;2015;48.670;9.060;2023-10-13T10:42:28;6.57;;;3.70;;
4001;SDS011;2015;48.670;9.060;2023-10-13T10:45:00;5.90;;;3.85;;
4001;SDS011;2015;48.670;9.060;2023-10-13T10:47:47;6.15;;;4.32;;
4001;SDS011;2015;48.670;9.060;2023-10-13T10:50:25;6.18;;;3.90;;
4001;SDS011;2015;48.670;9.060;2023-10-13T10:53:06;6.93;;;4.13;;
4001;SDS011;2015;48.670;9.060;2023-10-13T10:55:40;8.55;;;3.40;;
4001;SDS011;2015;48.670;9.060;2023-10-13T10:58:12;35.10;;;33.60;;
4001;SDS011;2015;48.670;9.060;2023-10-13T11:01:06;65.00;;;62.57;;
4001;SDS011;2015;48.670;9.060;2023-10-13T11:03:54;189.13;;;180.87;;
4001;SDS011;2015;48.670;9.060;2023-10-13T11:06:28;15.83;;;15.03;;
4001;SDS011;2015;48.670;9.060;2023-10-13T11:09:09;505.45;;;478.17;;
4001;SDS011;2015;48.670;9.060;2023-10-13T11:11:53;7.30;;;4.43;;
4001;SDS011;2015;48.670;9.060;2023-10-13T11:14:28;343.80;;;328.83;;
4001;SDS011;2015;48.670;9.060;2023-10-13T11:17:00;606.47;;;569.17;;
4001;SDS011;2015;48.670;9.060;2023-10-13T11:19:36;6.13;;;4.87;;
4001;SDS011;2015;48.670;9.060;2023-10-13T11:22:27;5.70;;;3.70;;
4001;SDS011;2015;48.670;9.060;2023-10-13T11:25:23;4.03;;;3.73;;
4001;SDS011;2015;48.670;9.060;2023-10-13T11:28:14;3.93;;;3.40;;
4001;SDS011;2015;48.670;9.060;2023-10-13T11:31:00;6.90;;;4.00;;
4001;SDS011;2015;48.670;9.060;2023-10-13T11:33:36;4.40;;;4.10;;
4001;SDS011;2015;48.670;9.060;2023-10-13T11:36:17;4.33;;;4.03;;
4001;SDS011;2015;48.670;9.060;2023-10-13T11:38:52;5.05;;;3.88;;
4001;SDS011;2015;48.670;9.060;2023-10-13T11:41:29;4.17;;;3.77;;
4001;SDS011;2015;48.670;9.060;2023-10-13T11:44:05;4.27;;;3.20;;
4001;SDS011;2015;48.670;9.060;2023-10-13T11:46:37;5.87;;;4.00;;
4001;SDS011;2015;48.670;9.060;2023-10-13T11:49:10;4.63;;;4.03;;
4001;SDS011;2015;48.670;9.060;2023-10-13T11:52:03;7.30;;;3.93;;
4001;SDS011;2015;48.670;9.060;2023-10-13T11:54:47;4.50;;;3.30;;
4001;SDS011;2015;48.670;9.060;2023-10-13T11:57:19;3.93;;;3.63;;
4001;SDS011;2015;48.670;9.060;2023-10-13T11:59:52;4.80;;;3.47;;
4001;SDS011;2015;48.670;9.060;2023-10-13T12:02:24;6.63;;;4.20;;
4001;SDS011;2015;48.670;9.060;2023-10-13T12:04:56;3.93;;;3.57;;
4001;SDS011;2015;48.670;9.060;2023-10-13T12:07:31;8.03;;;4.67;;
4001;SDS011;2015;48.670;9.060;2023-10-13T12:10:19;4.10;;;3.80;;
4001;SDS011;2015;48.670;9.060;2023-10-13T12:13:20;4.80;;;4.00;;
4001;SDS011;2015;48.670;9.060;2023-10-13T12:15:52;15.03;;;4.73;;
4001;SDS011;2015;48.670;9.060;2023-10-13T12:18:28;3.70;;;3.40;;
4001;SDS011;2015;48.670;9.060;2023-10-13T12:21:02;4.83;;;4.37;;
4001;SDS011;2015;48.670;9.060;2023-10-13T12:23:39;5.20;;;4.70;;
4001;SDS011;2015;48.670;9.060;2023-10-13T12:26:16;6.43;;;3.90;;
4001;SDS011;2015;48.670;9.060;2023-10-13T12:28:50;6.57;;;3.40;;
4001;SDS011;2015;48.670;9.060;2023-10-13T12:31:36;5.00;;;4.60;;
4001;SDS011;2015;48.670;9.060;2023-10-13T12:34:10;5.37;;;4.87;;
4001;SDS011;2015;48.670;9.060;2023-10-13T12:36:51;5.43;;;4.33;;
4001;SDS011;2015;48.670;9.060;2023-10-13T12:39:37;4.63;;;4.03;;
4001;SDS011;2015;48.670;9.060;2023-10-13T12:42:28;7.33;;;4.23;;
4001;SDS011;2015;48.670;9.060;2023-10-13T12:45:18;6.40;;;5.43;;
4001;SDS011;2015;48.670;9.060;2023-10-13T12:48:09;7.90;;;4.30;;
4001;SDS011;2015;48.670;9.060;2023-10-13T12:51:02;4.70;;;4.30;;
4001;SDS011;2015;48.670;9.060;2023-10-13T12:53:52;4.23;;;3.70;;
4001;SDS011;2015;48.670;9.060;2023-10-13T12:56:25;4.40;;;4.00;;
4001;SDS011;2015;48.670;9.060;2023-10-13T12:58:59;5.17;;;4.77;;
4001;SDS011;2015;48.670;9.060;2023-10-13T13:01:31;6.20;;;4.67;;
4001;SDS011;2015;48.670;9.060;2023-10-13T13:04:06;5.50;;;5.10;;
4001;SDS011;2015;48.670;9.060;2023-10-13T13:06:42;6.10;;;4.70;;
4001;SDS011;2015;48.670;9.060;2023-10-13T13:09:14;11.93;;;4.37;;
4001;SDS011;2015;48.670;9.060;2023-10-13T13:11:46;6.40;;;4.00;;
4001;SDS011;2015;48.670;9.060;2023-10-13T13:14:20;5.17;;;4.47;;
4001;SDS011;2015;48.670;9.060;2023-10-13T13:16:52;5.03;;;4.60;;
4001;SDS011;2015;48.670;9.060;2023-10-13T13:19:24;5.90;;;3.80;;
4001;SDS011;2015;48.670;9.060;2023-10-13T13:21:57;7.60;;;4.07;;
4001;SDS011;2015;48.670;9.060;2023-10-13T13:24:29;4.13;;;3.77;;
4001;SDS011;2015;48.670;9.060;2023-10-13T13:27:01;8.23;;;5.77;;
4001;SDS011;2015;48.670;9.060;2023-10-13T13:29:36;4.77;;;4.37;;
4001;SDS011;2015;48.670;9.060;2023-10-13T13:32:09;12.83;;;12.20;;
4001;SDS011;2015;48.670;9.060;2023-10-13T13:34:56;6.50;;;5.90;;
4001;SDS011;2015;48.670;9.060;2023-10-13T13:37:54;4.57;;;4.10;;
4001;SDS011;2015;48.670;9.060;2023-10-13T13:40:37;5.60;;;4.67;;
4001;SDS011;2015;48.670;9.060;2023-10-13T13:43:09;4.93;;;4.53;;
4001;SDS011;2015;48.670;9.060;2023-10-13T13:45:49;5.33;;;5.13;;
4001;SDS011;2015;48.670;9.060;2023-10-13T13:48:21;9.70;;;8.13;;
4001;SDS011;2015;48.670;9.060;2023-10-13T13:50:53;24.20;;;23.23;;
4001;SDS011;2015;48.670;9.060;2023-10-13T13:53:31;157.27;;;151.83;;
4001;SDS011;2015;48.670;9.060;2023-10-13T13:56:06;173.77;;;167.60;;
4001;SDS011;2015;48.670;9.060;2023-10-13T13:58:38;260.87;;;250.90;;
4001;SDS011;2015;48.670;9.060;2023-10-13T14:01:09;196.30;;;189.23;;
4001;SDS011;2015;48.670;9.060;2023-10-13T14:03:50;247.33;;;237.83;;
4001;SDS011;2015;48.670;9.060;2023-10-13T14:06:23;324.97;;;311.37;;
4001;SDS011;2015;48.670;9.060;2023-10-13T14:08:57;38.47;;;37.03;;
4001;SDS011;2015;48.670;9.060;2023-10-13T14:11:45;65.23;;;60.80;;
4001;SDS011;2015;48.670;9.060;2023-10-13T14:14:26;1051.77;;;989.73;;
4001;SDS011;2015;48.670;9.060;2023-10-13T14:16:58;983.57;;;924.47;;
4001;SDS011;2015;48.670;9.060;2023-10-13T14:19:39;689.20;;;649.40;;
4001;SDS011;2015;48.670;9.060;2023-10-13T14:22:15;138.27;;;133.13;;
4001;SDS011;2015;48.670;9.060;2023-10-13T14:24:47;115.07;;;111.13;;
4001;SDS011;2015;48.670;9.060;2023-10-13T14:27:22;189.53;;;182.97;;
4001;SDS011;2015;48.670;9.060;2023-10-13T14:29:54;206.93;;;199.27;;
4001;SDS011;2015;48.670;9.060;2023-10-13T14:32:27;306.23;;;294.23;;
4001;SDS011;2015;48.670;9.060;2023-10-13T14:34:59;163.63;;;157.93;;
4001;SDS011;2015;48.670;9.060;2023-10-13T14:37:31;155.43;;;150.10;;
4001;SDS011;2015;48.670;9.060;2023-10-13T14:40:03;98.50;;;94.90;;
4001;SDS011;2015;48.670;9.060;2023-10-13T14:42:35;60.47;;;58.13;;
4001;SDS011;2015;48.670;9.060;2023-10-13T14:45:07;166.63;;;160.73;;
4001;SDS011;2015;48.670;9.060;2023-10-13T14:47:47;195.13;;;188.13;;
4001;SDS011;2015;48.670;9.060;2023-10-13T14:50:19;180.63;;;173.93;;
4001;SDS011;2015;48.670;9.060;2023-10-13T14:52:51;132.73;;;128.10;;
4001;SDS011;2015;48.670;9.060;2023-10-13T14:55:23;162.27;;;156.67;;
4001;SDS011;2015;48.670;9.060;2023-10-13T14:58:09;180.20;;;173.23;;
4001;SDS011;2015;48.670;9.060;2023-10-13T15:00:43;3.83;;;3.53;;
4001;SDS011;2015;48.670;9.060;2023-10-13T15:03:16;8.93;;;8.33;;
4001;SDS011;2015;48.670;9.060;2023-10-13T15:05:49;56.97;;;55.07;;
4001;SDS011;2015;48.670;9.060;2023-10-13T15:08:21;108.37;;;104.43;;
4001;SDS011;2015;48.670;9.060;2023-10-13T15:10:53;69.97;;;67.17;;
4001;SDS011;2015;48.670;9.060;2023-10-13T15:13:25;118.80;;;114.57;;
4001;SDS011;2015;48.670;9.060;2023-10-13T15:15:56;126.50;;;122.07;;
4001;SDS011;2015;48.670;9.060;2023-10-13T15:18:29;115.17;;;110.90;;
4001;SDS011;2015;48.670;9.060;2023-10-13T15:21:00;116.07;;;112.17;;
4001;SDS011;2015;48.670;9.060;2023-10-13T15:23:32;157.27;;;151.57;;
4001;SDS011;2015;48.670;9.060;2023-10-13T15:26:04;111.57;;;107.87;;
4001;SDS011;2015;48.670;9.060;2023-10-13T15:28:41;60.30;;;58.33;;
4001;SDS011;2015;48.670;9.060;2023-10-13T15:31:24;83.57;;;80.70;;
4001;SDS011;2015;48.670;9.060;2023-10-13T15:34:05;111.30;;;107.20;;
4001;SDS011;2015;48.670;9.060;2023-10-13T15:36:46;67.30;;;64.70;;
4001;SDS011;2015;48.670;9.060;2023-10-13T15:39:18;45.17;;;43.60;;
4001;SDS011;2015;48.670;9.060;2023-10-13T15:41:55;37.83;;;36.50;;
4001;SDS011;2015;48.670;9.060;2023-10-13T15:44:33;53.83;;;51.83;;
4001;SDS011;2015;48.670;9.060;2023-10-13T15:47:06;24.17;;;23.23;;